Time;durP1;ratioP1;P1;durP2;ratioP2;P2;SDS_P1;SDS_P2;PMS_P1;PMS_P2;Temp;Humidity;BMP_temperature;BMP_pressure;BME280_temperature;BME280_humidity;BME280_pressure;Samples;Min_cycle;Max_cycle;Signal;HPM_P1;HPM_P2
2021/01/06 00:01:11;;;;;;;30.12;15.30;;;;;;;17.17;46.56;155635.47;1776988;80;21942;-74
2021/01/06 00:03:43;;;;;;;29.20;14.53;;;;;;;17.11;46.55;155619.63;1777493;80;21376;-74
2021/01/06 00:06:16;;;;;;;33.88;16.17;;;;;;;17.01;46.43;155593.27;1763015;80;21250;-74
2021/01/06 00:08:49;;;;;;;32.60;15.32;;;;;;;17.03;46.38;155597.20;1760109;81;21226;-73
2021/01/06 00:11:22;;;;;;;29.27;13.62;;;;;;;17.03;46.33;155597.20;1760691;81;21266;-74
2021/01/06 00:13:54;;;;;;;34.05;15.80;;;;;;;16.92;46.59;155568.20;1760314;81;21194;-74
2021/01/06 00:16:28;;;;;;;32.45;14.30;;;;;;;17.00;46.30;155589.33;1760583;81;21230;-73
2021/01/06 00:19:00;;;;;;;31.62;16.17;;;;;;;16.92;46.45;155568.20;1760652;81;21460;-73
2021/01/06 00:21:33;;;;;;;34.05;15.28;;;;;;;16.91;46.37;155565.56;1759158;81;21239;-73
2021/01/06 00:24:06;;;;;;;29.30;14.07;;;;;;;16.72;46.65;155515.48;1755293;82;21204;-73
2021/01/06 00:26:39;;;;;;;31.15;14.73;;;;;;;16.84;46.61;155547.12;1759834;80;21796;-73
2021/01/06 00:29:12;;;;;;;30.88;15.30;;;;;;;16.87;46.60;155555.05;1760387;81;21286;-73
2021/01/06 00:31:45;;;;;;;29.40;13.65;;;;;;;16.83;46.73;155544.48;1760472;81;21190;-74
2021/01/06 00:34:18;;;;;;;29.32;14.70;;;;;;;16.95;46.62;155576.13;1760766;81;22021;-74
2021/01/06 00:36:50;;;;;;;31.42;14.98;;;;;;;16.89;46.73;155560.33;1760314;81;21194;-73
2021/01/06 00:39:24;;;;;;;30.02;14.38;;;;;;;17.03;46.51;155598.55;1759821;81;21717;-73
2021/01/06 00:41:57;;;;;;;33.73;15.65;;;;;;;17.07;46.42;155609.06;1752318;81;21227;-73
2021/01/06 00:44:29;;;;;;;31.42;14.45;;;;;;;17.02;46.36;155594.56;1721088;82;21396;-74
2021/01/06 00:47:03;;;;;;;29.27;13.40;;;;;;;16.97;46.38;155582.70;1743968;82;21322;-73
2021/01/06 00:49:36;;;;;;;35.45;15.90;;;;;;;16.94;46.39;155574.83;1729351;83;21405;-74
2021/01/06 00:52:08;;;;;;;33.80;15.30;;;;;;;16.89;46.54;155560.33;1738019;82;21421;-74
2021/01/06 00:54:41;;;;;;;33.25;15.25;;;;;;;16.82;46.68;155541.84;1743836;82;21756;-74
2021/01/06 00:57:16;;;;;;;30.70;15.05;;;;;;;16.87;46.65;155555.05;1745738;81;21326;-73
2021/01/06 00:59:49;;;;;;;28.95;15.25;;;;;;;16.91;46.60;155565.56;1743758;82;21227;-73
2021/01/06 01:02:22;;;;;;;31.77;15.63;;;;;;;16.97;46.67;155581.41;1709285;83;21328;-73
2021/01/06 01:04:54;;;;;;;37.30;16.27;;;;;;;17.02;46.55;155594.56;1758283;81;21254;-73
2021/01/06 01:07:27;;;;;;;37.42;15.75;;;;;;;17.10;46.49;155615.69;1764354;81;21435;-73
2021/01/06 01:10:00;;;;;;;32.48;15.70;;;;;;;17.10;46.45;155616.98;1765501;81;21192;-73
2021/01/06 01:12:32;;;;;;;39.67;15.93;;;;;;;17.15;46.45;155628.84;1765696;81;21409;-73
2021/01/06 01:15:08;;;;;;;28.10;13.95;;;;;;;17.17;46.28;155634.13;1765656;81;21404;-73
2021/01/06 01:17:43;;;;;;;29.82;15.20;;;;;;;17.11;46.37;155618.33;1765728;81;21428;-73
2021/01/06 01:20:17;;;;;;;30.77;15.53;;;;;;;17.13;46.32;155623.61;1764017;81;21210;-73
2021/01/06 01:22:49;;;;;;;35.52;15.63;;;;;;;17.05;46.29;155603.83;1765625;81;21186;-73
2021/01/06 01:25:27;;;;;;;34.67;15.68;;;;;;;17.07;46.39;155607.77;1763688;81;21331;-72
2021/01/06 01:27:59;;;;;;;35.23;16.45;;;;;;;17.12;46.37;155620.97;1765562;81;21239;-73
2021/01/06 01:30:32;;;;;;;34.50;15.65;;;;;;;17.15;46.29;155628.84;1765767;80;21224;-72
2021/01/06 01:33:05;;;;;;;31.90;15.30;;;;;;;17.19;46.35;155640.70;1765684;81;21244;-72
2021/01/06 01:35:38;;;;;;;33.02;15.05;;;;;;;17.21;46.17;155647.34;1765508;81;21726;-72
2021/01/06 01:38:18;;;;;;;35.08;15.20;;;;;;;17.17;46.17;155634.13;1765454;81;21232;-72
2021/01/06 01:41:04;;;;;;;32.70;15.95;;;;;;;17.15;46.25;155628.84;1765158;81;21171;-73
2021/01/06 01:43:37;;;;;;;32.90;14.73;;;;;;;17.20;46.30;155643.34;1765399;81;21324;-72
2021/01/06 01:46:23;;;;;;;34.33;15.55;;;;;;;17.25;46.23;155657.84;1765795;81;21364;-73
2021/01/06 01:48:55;;;;;;;31.33;15.40;;;;;;;17.30;46.18;155671.11;1760527;81;21323;-73
2021/01/06 01:51:40;;;;;;;33.38;14.70;;;;;;;17.25;46.21;155656.56;1742734;80;21335;-73
2021/01/06 01:54:15;;;;;;;36.45;16.02;;;;;;;17.25;46.36;155656.56;1742956;82;21688;-73
2021/01/06 01:57:15;;;;;;;30.95;14.25;;;;;;;17.32;46.21;155676.39;1744315;81;21358;-73
2021/01/06 02:00:13;;;;;;;29.32;15.03;;;;;;;17.25;46.38;155657.84;1762003;81;21179;-72
2021/01/06 02:02:52;;;;;;;29.98;14.38;;;;;;;17.25;46.58;155657.84;1765351;81;21333;-71
2021/01/06 02:05:41;;;;;;;30.92;15.08;;;;;;;17.18;46.36;155638.12;1765659;81;21198;-72
2021/01/06 02:08:22;;;;;;;29.98;15.05;;;;;;;17.12;46.70;155622.27;1715405;80;21726;-72
2021/01/06 02:10:58;;;;;;;31.73;16.30;;;;;;;17.13;46.48;155623.61;1780697;80;21169;-73
2021/01/06 02:13:37;;;;;;;33.83;14.83;;;;;;;17.16;46.36;155631.48;1780686;80;21348;-72
2021/01/06 02:16:19;;;;;;;36.13;15.50;;;;;;;17.21;46.39;155647.34;1757149;80;21352;-73
2021/01/06 02:18:52;;;;;;;25.25;13.00;;;;;;;17.28;46.28;155664.48;1779482;80;21745;-73
2021/01/06 02:21:26;;;;;;;32.15;15.13;;;;;;;17.34;46.03;155681.69;1780759;80;21166;-73
2021/01/06 02:23:59;;;;;;;28.50;14.40;;;;;;;17.24;46.28;155653.91;1780741;80;21272;-73
2021/01/06 02:26:32;;;;;;;29.65;14.60;;;;;;;17.28;46.20;155664.48;1755612;80;21251;-73
2021/01/06 02:29:04;;;;;;;28.57;13.68;;;;;;;17.29;46.15;155667.17;1749850;82;21251;-73
2021/01/06 02:31:37;;;;;;;32.85;14.38;;;;;;;17.21;46.32;155647.34;1749880;82;21374;-72
2021/01/06 02:34:11;;;;;;;30.37;15.55;;;;;;;17.25;46.25;155657.84;1749685;80;21250;-73
2021/01/06 02:36:43;;;;;;;30.20;13.60;;;;;;;17.28;46.17;155664.48;1751564;80;21312;-73
2021/01/06 02:39:16;;;;;;;26.60;14.50;;;;;;;17.24;46.12;155653.91;1749729;82;21330;-70
2021/01/06 02:41:49;;;;;;;34.40;14.93;;;;;;;17.20;46.24;155644.69;1749843;82;21688;-73
2021/01/06 02:44:21;;;;;;;34.00;16.50;;;;;;;17.26;46.26;155660.50;1749575;82;21343;-73
2021/01/06 02:46:55;;;;;;;31.48;15.32;;;;;;;17.17;46.19;155635.47;1749541;82;21244;-74
2021/01/06 02:49:27;;;;;;;31.97;15.28;;;;;;;17.19;46.14;155642.06;1752196;80;21295;-73
2021/01/06 02:52:08;;;;;;;31.05;16.70;;;;;;;17.21;46.17;155645.98;1749444;82;21366;-73
2021/01/06 02:54:43;;;;;;;30.90;15.10;;;;;;;17.16;46.17;155632.83;1749723;80;21367;-74
2021/01/06 02:57:16;;;;;;;31.17;15.98;;;;;;;17.08;46.19;155611.70;1773702;80;21513;-71
2021/01/06 02:59:48;;;;;;;32.53;15.45;;;;;;;17.04;46.29;155599.84;1781238;80;21352;-73
2021/01/06 03:02:24;;;;;;;35.98;15.35;;;;;;;17.08;46.27;155611.70;1760989;80;21328;-73
2021/01/06 03:05:14;;;;;;;36.58;16.55;;;;;;;17.11;46.41;155619.63;1749730;82;21909;-73
2021/01/06 03:07:48;;;;;;;39.75;16.57;;;;;;;17.18;46.44;155639.41;1765210;80;21387;-71
2021/01/06 03:10:22;;;;;;;31.25;15.55;;;;;;;17.23;46.22;155652.62;1780966;80;21356;-73
2021/01/06 03:12:55;;;;;;;34.90;16.37;;;;;;;17.14;46.11;155627.55;1780943;80;21313;-72
2021/01/06 03:15:29;;;;;;;32.30;15.25;;;;;;;17.18;46.03;155639.41;1780869;80;21210;-73
2021/01/06 03:18:01;;;;;;;38.33;16.80;;;;;;;17.02;46.09;155595.91;1776662;80;21794;-73
2021/01/06 03:20:39;;;;;;;33.45;16.15;;;;;;;17.11;46.11;155619.63;1780695;80;21233;-73
2021/01/06 03:23:19;;;;;;;35.43;16.42;;;;;;;17.10;46.07;155616.98;1780734;80;21241;-73
2021/01/06 03:25:51;;;;;;;37.98;16.02;;;;;;;17.10;46.11;155616.98;1754648;80;21343;-73
2021/01/06 03:28:23;;;;;;;35.23;16.40;;;;;;;17.17;46.13;155635.47;1767877;81;21241;-73
2021/01/06 03:30:57;;;;;;;31.87;15.85;;;;;;;17.24;46.03;155655.22;1768065;81;21163;-73
2021/01/06 03:33:38;;;;;;;33.53;16.05;;;;;;;17.43;45.88;155704.06;1768044;81;21332;-73
2021/01/06 03:36:17;;;;;;;42.27;15.95;;;;;;;17.28;45.97;155665.78;1773066;80;21258;-73
2021/01/06 03:39:01;;;;;;;41.37;16.42;;;;;;;17.30;45.91;155671.11;1780801;80;21229;-71
2021/01/06 03:41:33;;;;;;;34.90;16.35;;;;;;;17.30;45.90;155671.11;1780628;80;21701;-73
2021/01/06 03:44:08;;;;;;;40.78;16.62;;;;;;;17.31;45.79;155673.75;1767171;80;21357;-73
2021/01/06 03:47:04;;;;;;;38.40;16.40;;;;;;;17.19;45.98;155642.06;1749408;82;21200;-73
2021/01/06 03:49:55;;;;;;;35.25;15.72;;;;;;;17.19;45.97;155640.70;1749605;82;21385;-73
2021/01/06 03:52:38;;;;;;;29.75;15.30;;;;;;;17.15;46.03;155628.84;1749468;80;21333;-74
2021/01/06 03:55:36;;;;;;;37.85;15.55;;;;;;;17.15;46.03;155630.19;1768808;80;21351;-74
2021/01/06 03:58:30;;;;;;;35.65;15.18;;;;;;;17.08;46.06;155610.41;1780830;80;21380;-71
2021/01/06 04:01:25;;;;;;;31.93;14.90;;;;;;;17.08;46.09;155611.70;1776477;80;21198;-72
2021/01/06 04:04:20;;;;;;;39.48;17.45;;;;;;;17.01;46.23;155593.27;1767381;80;21225;-71
2021/01/06 04:06:54;;;;;;;29.65;14.65;;;;;;;16.99;46.22;155587.98;1779960;80;21320;-71
2021/01/06 04:09:46;;;;;;;33.83;17.00;;;;;;;17.00;46.20;155589.33;1755006;80;21697;-71
2021/01/06 04:12:20;;;;;;;32.88;15.80;;;;;;;16.99;46.22;155586.69;1758019;80;21311;-71
2021/01/06 04:14:52;;;;;;;38.25;17.25;;;;;;;17.03;46.31;155598.55;1748977;82;21365;-72
2021/01/06 04:17:31;;;;;;;38.02;17.50;;;;;;;17.05;46.27;155602.48;1765789;80;21402;-72
2021/01/06 04:20:30;;;;;;;36.30;17.23;;;;;;;16.99;46.26;155586.69;1772605;80;21395;-72
2021/01/06 04:23:09;;;;;;;39.60;17.17;;;;;;;16.95;46.38;155577.47;1757176;80;21211;-73
2021/01/06 04:25:47;;;;;;;36.65;17.20;;;;;;;16.97;46.42;155581.41;1750319;80;21180;-73
2021/01/06 04:28:26;;;;;;;38.08;17.32;;;;;;;16.98;46.39;155584.05;1749717;80;21302;-72
2021/01/06 04:31:13;;;;;;;42.53;17.25;;;;;;;17.00;46.67;155589.33;1748936;80;21355;-72
2021/01/06 04:33:49;;;;;;;38.95;17.57;;;;;;;17.06;46.73;155605.13;1762780;80;21198;-73
2021/01/06 04:36:27;;;;;;;44.08;18.62;;;;;;;17.11;46.84;155619.63;1751581;80;21198;-72
2021/01/06 04:39:04;;;;;;;41.33;17.77;;;;;;;17.17;47.10;155634.13;1745905;82;21296;-73
2021/01/06 04:41:54;;;;;;;40.58;17.23;;;;;;;17.21;46.79;155647.34;1746529;80;21182;-73
2021/01/06 04:44:43;;;;;;;40.33;17.60;;;;;;;17.15;46.75;155630.19;1770009;80;21368;-73
2021/01/06 04:47:55;;;;;;;45.00;16.75;;;;;;;17.17;46.76;155634.13;1757972;80;21419;-72
2021/01/06 04:50:44;;;;;;;40.73;17.62;;;;;;;17.12;49.57;155620.97;1757423;80;21801;-72
2021/01/06 04:53:41;;;;;;;39.53;16.23;;;;;;;17.12;50.53;155622.27;1771859;80;21367;-71
2021/01/06 04:56:41;;;;;;;34.40;16.37;;;;;;;17.12;49.67;155620.97;1761505;80;21190;-73
2021/01/06 04:59:46;;;;;;;36.85;16.15;;;;;;;17.17;48.04;155634.13;1757646;80;21360;-72
2021/01/06 05:02:40;;;;;;;40.80;16.73;;;;;;;17.22;47.58;155649.98;1761102;80;21797;-72
2021/01/06 05:05:37;;;;;;;37.80;15.28;;;;;;;17.22;47.20;155649.98;1764071;80;21442;-73
2021/01/06 05:08:37;;;;;;;40.60;16.40;;;;;;;17.23;47.08;155652.62;1756757;80;21170;-72
2021/01/06 05:11:29;;;;;;;44.58;17.42;;;;;;;17.25;47.09;155657.84;1753453;80;21193;-73
2021/01/06 05:14:12;;;;;;;49.45;18.00;;;;;;;17.34;46.99;155680.33;1721150;82;21229;-73
2021/01/06 05:16:50;;;;;;;40.12;16.87;;;;;;;17.40;46.74;155697.47;1722746;82;21196;-73
2021/01/06 05:19:31;;;;;;;40.55;16.95;;;;;;;17.43;46.63;155704.06;1721944;82;21785;-72
2021/01/06 05:22:05;;;;;;;39.65;15.83;;;;;;;17.38;46.46;155692.19;1716760;82;21334;-72
2021/01/06 05:24:50;;;;;;;36.58;15.95;;;;;;;17.33;46.57;155679.03;1732869;82;21233;-72
2021/01/06 05:27:28;;;;;;;38.58;16.73;;;;;;;17.43;46.52;155705.41;1729995;82;21687;-77
2021/01/06 05:30:02;;;;;;;41.92;17.65;;;;;;;17.56;46.19;155739.70;1728356;82;21283;-71
2021/01/06 05:32:39;;;;;;;43.23;17.35;;;;;;;17.64;46.12;155759.50;1731255;82;21202;-72
2021/01/06 05:35:17;;;;;;;48.73;17.67;;;;;;;17.61;46.15;155752.86;1726487;82;21502;-73
2021/01/06 05:37:59;;;;;;;42.67;16.93;;;;;;;17.64;46.25;155759.50;1716138;83;21251;-78
2021/01/06 05:40:34;;;;;;;46.10;18.23;;;;;;;17.72;46.11;155780.59;1721184;82;21218;-74
2021/01/06 05:43:31;;;;;;;59.30;19.55;;;;;;;17.78;45.95;155796.39;1728718;82;21380;-73
2021/01/06 05:46:07;;;;;;;45.60;19.17;;;;;;;17.75;45.84;155788.52;1719486;82;21298;-76
2021/01/06 05:48:53;;;;;;;51.75;19.90;;;;;;;17.65;45.83;155762.14;1717031;83;21283;-74
2021/01/06 05:51:34;;;;;;;47.27;19.40;;;;;;;17.62;45.92;155755.50;1724447;82;21330;-75
2021/01/06 05:54:45;;;;;;;51.75;19.07;;;;;;;17.66;45.95;155764.73;1733422;82;21601;-76
2021/01/06 05:57:38;;;;;;;54.60;20.23;;;;;;;17.68;45.89;155770.02;1729395;82;21206;-76
2021/01/06 06:00:24;;;;;;;51.85;20.72;;;;;;;17.66;45.95;155766.08;1735279;82;21517;-71
2021/01/06 06:03:27;;;;;;;50.05;20.02;;;;;;;17.44;46.05;155708.05;1731092;82;21364;-71
2021/01/06 06:06:39;;;;;;;56.80;20.05;;;;;;;17.54;46.00;155734.41;1743937;82;21196;-73
2021/01/06 06:09:42;;;;;;;48.35;19.85;;;;;;;17.56;46.00;155739.70;1735967;82;21205;-73
2021/01/06 06:12:59;;;;;;;49.93;18.17;;;;;;;17.59;46.12;155746.28;1700658;83;21333;-71
2021/01/06 06:16:02;;;;;;;51.95;21.48;;;;;;;17.67;46.04;155768.72;1710052;82;21326;-71
2021/01/06 06:19:16;;;;;;;55.30;20.35;;;;;;;17.71;46.26;155779.23;1732453;82;21388;-71
2021/01/06 06:22:22;;;;;;;50.60;20.70;;;;;;;17.76;46.27;155791.16;1730034;82;21148;-71
2021/01/06 06:25:05;;;;;;;51.10;18.20;;;;;;;17.73;46.63;155784.53;1733006;82;21239;-72
2021/01/06 06:28:08;;;;;;;58.55;19.42;;;;;;;17.67;46.80;155767.38;1742078;82;21221;-72
2021/01/06 06:30:53;;;;;;;49.67;20.08;;;;;;;17.64;47.74;155759.50;1743749;82;21303;-69
2021/01/06 06:33:34;;;;;;;47.50;19.25;;;;;;;17.71;47.56;155779.23;1720704;81;21175;-77
2021/01/06 06:36:16;;;;;;;52.55;19.95;;;;;;;17.74;49.07;155785.87;1750892;82;21322;-80
2021/01/06 06:38:48;;;;;;;56.28;20.77;;;;;;;17.63;49.75;155758.16;1712212;82;22066;-72
2021/01/06 06:41:28;;;;;;;50.23;18.65;;;;;;;17.83;50.48;155809.61;1731210;82;21458;-78
2021/01/06 06:44:22;;;;;;;51.10;18.80;;;;;;;17.71;49.78;155777.94;1711038;82;21238;-73
2021/01/06 06:46:59;;;;;;;58.20;20.97;;;;;;;17.67;50.01;155767.38;1776396;79;21186;-80
2021/01/06 06:49:55;;;;;;;55.48;20.62;;;;;;;17.67;49.94;155768.72;1778649;79;21642;-73
2021/01/06 06:52:53;;;;;;;53.63;20.68;;;;;;;17.65;50.36;155763.44;1776787;79;21237;-77
2021/01/06 06:55:42;;;;;;;55.25;19.45;;;;;;;17.66;49.65;155764.73;1778021;79;21214;-76
2021/01/06 06:58:31;;;;;;;55.78;20.92;;;;;;;17.65;50.11;155763.44;1760574;79;21150;-75
2021/01/06 07:01:08;;;;;;;57.78;19.45;;;;;;;17.70;50.85;155776.66;1777194;80;21185;-74
2021/01/06 07:03:42;;;;;;;56.70;20.90;;;;;;;17.67;50.15;155768.72;1777895;79;21206;-74
2021/01/06 07:06:16;;;;;;;51.53;19.40;;;;;;;17.67;50.75;155767.38;1775894;79;22662;-81
2021/01/06 07:08:54;;;;;;;50.35;20.15;;;;;;;17.68;51.41;155770.02;1777413;80;21245;-72
2021/01/06 07:11:44;;;;;;;55.33;20.23;;;;;;;17.71;51.37;155777.94;1779030;79;21181;-74
2021/01/06 07:14:27;;;;;;;52.90;19.42;;;;;;;17.65;51.10;155763.44;1754064;80;21281;-74
2021/01/06 07:17:10;;;;;;;50.65;18.27;;;;;;;17.70;50.89;155775.30;1755776;81;21357;-73
2021/01/06 07:19:54;;;;;;;58.25;19.95;;;;;;;17.69;51.12;155774.00;1760287;80;21480;-71
2021/01/06 07:22:34;;;;;;;53.55;19.27;;;;;;;17.76;50.92;155792.45;1757654;80;21412;-73
2021/01/06 07:25:22;;;;;;;49.67;18.42;;;;;;;17.79;50.41;155800.38;1756751;80;21320;-79
2021/01/06 07:28:02;;;;;;;46.95;17.98;;;;;;;17.89;49.89;155826.75;1756418;80;21326;-82
2021/01/06 07:30:41;;;;;;;46.25;17.60;;;;;;;17.95;50.12;155841.28;1757373;80;21226;-78
2021/01/06 07:33:34;;;;;;;50.40;18.73;;;;;;;17.89;49.24;155826.75;1756572;81;21900;-75
2021/01/06 07:36:15;;;;;;;41.37;18.07;;;;;;;17.86;49.49;155817.53;1755240;80;21384;-80
2021/01/06 07:38:48;;;;;;;44.18;19.00;;;;;;;17.92;49.67;155834.69;1755828;81;21372;-82
2021/01/06 07:41:21;;;;;;;53.73;20.40;;;;;;;17.99;49.40;155853.14;1751435;80;21200;-78
2021/01/06 07:44:08;;;;;;;46.28;17.40;;;;;;;17.97;50.25;155847.84;1757701;80;21248;-81
2021/01/06 07:47:05;;;;;;;40.90;16.12;;;;;;;17.98;49.99;155850.50;1734447;81;21765;-75
2021/01/06 07:50:00;;;;;;;45.98;17.30;;;;;;;18.08;50.08;155875.58;1756669;80;21564;-72
2021/01/06 07:52:52;;;;;;;46.08;16.75;;;;;;;18.03;50.15;155862.38;1755213;81;21317;-73
2021/01/06 07:55:32;;;;;;;46.37;17.95;;;;;;;18.01;49.89;155857.08;1758500;80;21357;-72
2021/01/06 07:58:18;;;;;;;50.83;19.40;;;;;;;18.04;50.20;155865.00;1756750;80;21353;-77
2021/01/06 08:00:59;;;;;;;51.23;17.45;;;;;;;18.22;49.73;155915.25;1756067;80;21353;-73
2021/01/06 08:03:50;;;;;;;43.10;17.10;;;;;;;18.12;49.77;155887.45;1756932;80;21336;-78
2021/01/06 08:06:24;;;;;;;60.17;21.70;;;;;;;18.03;50.31;155863.72;1756281;80;21405;-80
2021/01/06 08:08:57;;;;;;;47.83;17.92;;;;;;;18.12;50.04;155888.75;1754998;80;21199;-79
2021/01/06 08:11:30;;;;;;;46.25;17.50;;;;;;;18.20;49.55;155909.91;1750615;80;21378;-77
2021/01/06 08:14:04;;;;;;;48.92;18.48;;;;;;;18.24;49.57;155919.19;1762969;80;21205;-83
2021/01/06 08:16:51;;;;;;;38.70;16.77;;;;;;;18.35;49.99;155948.22;1774765;80;21194;-80
2021/01/06 08:19:31;;;;;;;41.65;16.42;;;;;;;18.29;50.08;155932.34;1776715;80;21257;-76
2021/01/06 08:22:17;;;;;;;43.85;16.85;;;;;;;18.18;50.33;155903.27;1778257;80;21213;-81
2021/01/06 08:25:06;;;;;;;42.08;16.10;;;;;;;18.20;49.86;155908.55;1756572;80;21190;-77
2021/01/06 08:27:38;;;;;;;42.78;17.05;;;;;;;18.29;49.55;155932.34;1753200;80;21224;-77
2021/01/06 08:30:21;;;;;;;42.48;17.30;;;;;;;18.49;49.09;155985.19;1776352;79;21840;-80
2021/01/06 08:33:09;;;;;;;40.40;16.80;;;;;;;18.39;49.22;155960.08;1776496;79;21245;-77
2021/01/06 08:35:45;;;;;;;39.60;16.30;;;;;;;18.40;49.97;155961.44;1779890;79;21392;-81
2021/01/06 08:38:34;;;;;;;42.60;16.12;;;;;;;18.29;49.26;155933.69;1776874;79;21862;-78
2021/01/06 08:41:25;;;;;;;40.73;16.42;;;;;;;18.30;49.46;155936.34;1777391;80;21182;-79
2021/01/06 08:44:45;;;;;;;41.18;16.45;;;;;;;18.40;49.03;155962.73;1778864;79;21352;-79
2021/01/06 08:47:37;;;;;;;41.48;15.95;;;;;;;18.46;48.87;155977.25;1777288;79;21776;-77
2021/01/06 08:50:18;;;;;;;43.38;17.35;;;;;;;18.55;48.75;156002.34;1776196;80;21753;-74
2021/01/06 08:52:54;;;;;;;38.63;16.12;;;;;;;18.56;49.18;156003.64;1776369;80;21689;-81
2021/01/06 08:55:43;;;;;;;39.38;16.73;;;;;;;18.53;48.95;155997.06;1773411;80;21225;-77
2021/01/06 08:58:17;;;;;;;43.70;15.78;;;;;;;18.36;49.67;155952.16;1775937;79;21383;-79
2021/01/06 09:00:58;;;;;;;39.05;15.48;;;;;;;18.31;50.51;155938.98;1780207;79;21751;-76
2021/01/06 09:03:45;;;;;;;;;;;;;;;18.38;50.06;155957.44;1783383;79;21225;-80
2021/01/06 09:06:20;;;;;;;41.68;15.88;;;;;;;18.46;51.34;155978.55;1777419;79;20218;-77
2021/01/06 09:09:06;;;;;;;38.60;15.75;;;;;;;18.40;50.48;155962.73;1777909;79;21376;-80
2021/01/06 09:11:54;;;;;;;35.23;14.68;;;;;;;18.60;50.35;156015.52;1779327;79;21324;-79
2021/01/06 09:14:41;;;;;;;31.73;14.25;;;;;;;18.49;51.19;155986.48;1776218;79;21262;-79
2021/01/06 09:17:34;;;;;;;39.38;15.90;;;;;;;18.58;50.70;156010.23;1739206;81;21403;-79
2021/01/06 09:20:18;;;;;;;34.98;13.00;;;;;;;18.70;49.76;156040.63;1758147;80;21775;-78
2021/01/06 09:22:51;;;;;;;37.10;14.35;;;;;;;18.79;50.04;156064.38;1761571;80;21427;-78
2021/01/06 09:25:27;;;;;;;31.75;14.63;;;;;;;19.08;49.86;156143.64;1757885;80;21226;-78
2021/01/06 09:28:02;;;;;;;39.23;14.15;;;;;;;19.13;49.80;156155.56;1757487;81;21257;-77
2021/01/06 09:30:37;;;;;;;33.75;13.95;;;;;;;19.01;49.65;156122.47;1757720;81;21156;-78
2021/01/06 09:33:22;;;;;;;33.88;13.65;;;;;;;18.99;50.06;156118.53;1758945;80;21151;-82
2021/01/06 09:35:55;;;;;;;32.75;13.68;;;;;;;19.14;49.86;156158.22;1757160;80;21924;-82
2021/01/06 09:38:37;;;;;;;35.48;14.30;;;;;;;19.13;50.67;156156.86;1756308;81;21357;-78
2021/01/06 09:41:14;;;;;;;40.28;14.68;;;;;;;19.10;49.75;156148.88;1754833;81;21361;-83
2021/01/06 09:43:50;;;;;;;37.30;15.25;;;;;;;19.05;50.46;156134.34;1745800;80;21769;-83
2021/01/06 09:46:42;;;;;;;32.83;14.43;;;;;;;18.96;50.74;156110.59;1750028;81;21722;-76
2021/01/06 09:49:18;;;;;;;28.65;13.32;;;;;;;18.81;52.26;156069.66;1747564;80;21472;-81
2021/01/06 09:51:53;;;;;;;37.15;14.73;;;;;;;18.80;51.03;156067.02;1733298;81;21329;-83
2021/01/06 09:54:26;;;;;;;29.72;13.35;;;;;;;18.99;50.96;156117.19;1755164;80;21738;-81
2021/01/06 09:56:58;;;;;;;33.05;15.53;;;;;;;19.05;50.49;156134.34;1755653;80;21627;-80
2021/01/06 09:59:34;;;;;;;32.65;15.13;;;;;;;18.89;50.50;156090.78;1756638;81;21904;-82
2021/01/06 10:02:29;;;;;;;41.73;15.15;;;;;;;18.92;50.50;156100.06;1757113;80;21381;-81
2021/01/06 10:05:12;;;;;;;35.63;14.70;;;;;;;19.25;50.31;156187.27;1756601;81;21760;-81
2021/01/06 10:07:54;;;;;;;34.83;15.70;;;;;;;19.29;50.21;156197.81;1756685;81;21159;-81
2021/01/06 10:10:33;;;;;;;37.13;16.15;;;;;;;19.17;49.98;156166.09;1756697;81;21912;-81
2021/01/06 10:13:19;;;;;;;38.73;15.63;;;;;;;19.20;49.82;156175.39;1754629;81;21297;-79
2021/01/06 10:16:12;;;;;;;36.50;15.18;;;;;;;19.10;50.35;156148.88;1755520;81;21269;-78
2021/01/06 10:19:07;;;;;;;36.75;15.63;;;;;;;19.18;49.97;156170.09;1763412;80;21181;-72
2021/01/06 10:22:00;;;;;;;38.25;16.15;;;;;;;19.00;50.37;156121.17;1757156;81;21202;-74
2021/01/06 10:25:04;;;;;;;39.38;16.65;;;;;;;18.92;50.40;156098.70;1743938;80;21490;-71
2021/01/06 10:27:43;;;;;;;39.48;16.02;;;;;;;18.92;50.27;156098.70;1767127;81;21225;-76
2021/01/06 10:30:20;;;;;;;39.30;16.25;;;;;;;18.98;49.77;156115.88;1766177;80;21311;-79
2021/01/06 10:33:18;;;;;;;32.95;14.23;;;;;;;19.07;49.88;156140.98;1767506;80;21193;-76
2021/01/06 10:36:08;;;;;;;39.65;15.03;;;;;;;19.02;49.96;156126.47;1767539;81;21218;-77
2021/01/06 10:38:52;;;;;;;38.48;15.23;;;;;;;19.00;49.22;156119.81;1769756;81;21221;-80
2021/01/06 10:41:29;;;;;;;37.17;15.10;;;;;;;18.91;48.86;156096.06;1767124;81;21906;-78
2021/01/06 10:44:05;;;;;;;37.98;15.50;;;;;;;18.87;49.37;156085.48;1766904;80;21250;-78
2021/01/06 10:46:44;;;;;;;36.28;14.93;;;;;;;18.92;49.46;156098.70;1738774;81;21238;-75
2021/01/06 10:49:25;;;;;;;36.85;15.08;;;;;;;18.99;49.07;156117.19;1765499;81;21245;-81
2021/01/06 10:52:06;;;;;;;37.80;15.58;;;;;;;19.06;48.98;156137.00;1765410;81;21237;-81
2021/01/06 10:54:56;;;;;;;37.55;15.75;;;;;;;19.19;48.95;156171.39;1767382;80;22336;-84
2021/01/06 10:57:48;;;;;;;45.45;17.62;;;;;;;19.19;48.95;156171.39;1768703;81;21178;-81
2021/01/06 11:00:26;;;;;;;43.38;17.90;;;;;;;19.08;49.13;156143.64;1754882;81;21213;-82
2021/01/06 11:03:31;;;;;;;40.03;17.57;;;;;;;19.08;49.09;156142.28;1768122;81;21217;-81
2021/01/06 11:06:26;;;;;;;44.83;19.00;;;;;;;19.11;48.90;156150.28;1767024;81;21253;-77
2021/01/06 11:09:21;;;;;;;47.23;19.30;;;;;;;19.10;48.69;156148.88;1768892;81;21493;-77
2021/01/06 11:12:15;;;;;;;47.90;17.75;;;;;;;19.16;48.83;156163.45;1768749;81;21206;-79
2021/01/06 11:14:55;;;;;;;40.58;15.50;;;;;;;19.17;48.31;156167.45;1769025;80;21772;-78
2021/01/06 11:17:37;;;;;;;47.15;17.40;;;;;;;19.06;48.57;156138.34;1757201;80;22496;-78
2021/01/06 11:20:37;;;;;;;43.20;16.52;;;;;;;19.03;48.21;156130.41;1750488;81;21241;-82
2021/01/06 11:23:35;;;;;;;38.83;15.88;;;;;;;19.07;48.05;156139.64;1749736;80;21425;-74
2021/01/06 11:26:33;;;;;;;40.83;17.62;;;;;;;19.10;47.94;156147.58;1746943;80;21188;-80
2021/01/06 11:29:47;;;;;;;34.10;16.20;;;;;;;19.07;47.97;156140.98;1748842;80;21246;-78
2021/01/06 11:32:24;;;;;;;37.95;14.38;;;;;;;19.04;47.26;156133.05;1683821;83;21800;-74
2021/01/06 11:35:26;;;;;;;35.43;15.40;;;;;;;18.81;47.12;156070.97;1701624;84;21200;-76
2021/01/06 11:38:02;;;;;;;26.95;12.80;;;;;;;18.81;47.26;156069.66;1690638;83;21750;-73
2021/01/06 11:40:50;;;;;;;27.73;11.40;;;;;;;18.84;47.65;156077.59;1714793;83;21317;-74
2021/01/06 11:43:49;;;;;;;30.32;13.28;;;;;;;18.97;47.51;156111.94;1704008;83;21763;-74
2021/01/06 11:46:39;;;;;;;32.33;11.63;;;;;;;18.94;47.37;156104.00;1695317;83;21332;-74
2021/01/06 11:49:29;;;;;;;28.05;12.60;;;;;;;18.99;47.27;156118.53;1713182;83;21360;-77
2021/01/06 11:52:34;;;;;;;29.42;13.20;;;;;;;18.92;47.24;156098.70;1711983;83;21809;-70
2021/01/06 11:55:37;;;;;;;32.80;13.72;;;;;;;18.73;48.26;156049.84;1713132;83;21368;-78
2021/01/06 11:58:25;;;;;;;29.02;12.03;;;;;;;18.80;48.53;156067.02;1715433;83;21408;-77
2021/01/06 12:01:19;;;;;;;30.70;13.32;;;;;;;18.91;48.12;156096.06;1715633;83;21352;-77
2021/01/06 12:04:02;;;;;;;30.15;12.78;;;;;;;18.95;47.96;156106.64;1704336;83;21377;-77
2021/01/06 12:06:54;;;;;;;34.13;14.60;;;;;;;18.91;48.09;156097.41;1703657;83;21370;-77
2021/01/06 12:09:41;;;;;;;38.78;15.58;;;;;;;18.97;47.92;156113.23;1682886;84;21387;-79
2021/01/06 12:12:49;;;;;;;30.72;13.65;;;;;;;18.98;48.00;156115.88;1758089;80;21711;-78
2021/01/06 12:15:43;;;;;;;30.70;12.73;;;;;;;19.00;47.80;156119.81;1758171;80;21207;-78
2021/01/06 12:18:36;;;;;;;31.65;13.50;;;;;;;19.03;47.75;156130.41;1763265;81;21229;-78
2021/01/06 12:21:39;;;;;;;28.47;13.58;;;;;;;19.01;47.65;156123.81;1738897;81;21269;-79